Aviation Digital Data Service (ADDS)

Output produced by METARs form (1942 UTC 18 June 2019)
found at http://www.aviationweather.gov/metar/data/
 
KANW 181935Z AUTO 10012G16KT 10SM BKN035 20/12 A3001 RMK AO2 T02020123
KBVN 181935Z AUTO 06007KT 10SM -RA SCT075 OVC085 16/14 A3000 RMK AO2 P0002 T01620140
KAIA 181853Z AUTO 00000KT 10SM SCT041 OVC050 20/11 A3002 RMK AO2 SLP136 T02000111
KAIA 181724Z 1818/1918 13010KT P6SM SCT008 BKN025 
     FM182100 15010KT P6SM VCSH BKN030 OVC040 
     FM190000 16010KT P6SM VCTS SCT020 OVC050CB 
     FM190900 20005KT P6SM OVC012
       
KAUH 181935Z AUTO 05014KT 5SM -RA OVC005 18/18 A2996 RMK AO2 P0004 T01800180
KBIE 181935Z AUTO 02009KT 7SM RA SCT035 OVC041 20/18 A2992 RMK AO2 LTG DSNT NE AND S P0001 T01950177
KBBW 181901Z AUTO 06010KT 10SM BKN009 OVC038 17/16 A3000 RMK AO2 T01720161
KCDR 181853Z AUTO 20003KT 10SM FEW040 SCT090 22/13 A2999 RMK AO2 LTG DSNT W SLP146 T02170128
KCDR 181724Z 1818/1918 16008KT P6SM SCT005 OVC030 
     FM182200 16010KT P6SM VCTS SCT020 BKN050CB 
     FM190100 17008KT 4SM RA VCTS SCT030 OVC060CB 
     FM190300 18006KT P6SM BKN030
       
KOLU 181856Z AUTO 03012G15KT 10SM -RA SCT032 OVC043 17/14 A2999 RMK AO2 SLP152 P0004 T01670144
KFNB 181853Z AUTO 12007KT 10SM CLR 28/16 A2988 RMK AO2 SLP109 T02780156
KFET 181935Z AUTO 01006KT 10SM -DZ BKN010 OVC024 20/18 A2996 RMK AO2 LTG DSNT S T02010179
KGRN 181935Z AUTO 10005KT 10SM SCT039 SCT044 SCT060 22/13 A2999 RMK AO2 LTG DSNT SW T02180131
KGRI 181853Z 08007KT 3SM -RA BR BKN007 OVC010 19/18 A2997 RMK AO2 SLP144 P0006 T01890178
KGRI 181740Z 1818/1918 04007KT 4SM -SHRA VCTS BKN008CB OVC050 
     TEMPO 1818/1821 2SM RA BR BKN006 
     FM190000 02005KT P6SM VCSH BKN015 OVC040 
     FM190300 04006KT P6SM OVC030 
     FM190900 02005KT 5SM BR BKN008 
     FM191400 VRB05KT P6SM BKN015
       
KHSI 181925Z AUTO 06010KT 5SM -RA BR SCT009 BKN016 OVC085 19/18 A2996 RMK AO2 P0001 T01940178
KHJH 181935Z AUTO 02006KT 5SM RA SCT012 BKN034 OVC050 20/19 A2994 RMK AO2 LTG DSNT SE THRU W P0005 T02000185
KHDE 181935Z AUTO 05009KT 7SM -RA BKN007 OVC013 18/17 A2997 RMK AO2 LTG DSNT SW P0003 T01770173
KIML 181910Z AUTO 10SM -RA SCT009 BKN024 OVC090 18/14 A3001 RMK AO2 P0000 T01830139
KEAR 181856Z AUTO 06009KT 9SM -RA BKN006 BKN010 OVC045 18/17 A2997 RMK AO2 SLP140 P0011 T01780172
KEAR 181740Z 1818/1918 04009KT 5SM -SHRA VCTS BKN007CB OVC015 
     FM182300 02005KT P6SM VCSH SCT008 OVC020 
     FM190200 04006KT P6SM BKN040 
     FM190600 03005KT 6SM BR BKN008 
     FM190900 VRB05KT 3SM BR BKN005 
     FM191400 VRB05KT P6SM BKN015
       
KIBM 181935Z AUTO 10004KT 10SM SCT020 BKN028 19/13 A3005 RMK AO2 LTG DSNT SW AND W T01860125
KLXN 181935Z AUTO 08007KT 7SM -RA BKN007 BKN016 OVC028 18/17 A2998 RMK AO2 P0006 T01750171 TSNO
KLNK 181906Z 01009KT 10SM -RA BKN014 BKN018 OVC060 22/18 A2994 RMK AO2 P0000 T02220183
KLNK 181735Z 1818/1918 03007KT 5SM -SHRA BR VCTS SCT015 SCT025 OVC050CB 
     TEMPO 1819/1823 2SM TSRA BR SCT015 OVC035CB 
     FM190000 04006KT 4SM -SHRA BR SCT007 BKN015 OVC025 
     FM191400 03007KT P6SM SCT007 BKN015
       
KMCK 181853Z AUTO 04008KT 10SM SCT012 BKN016 OVC033 18/16 A2999 RMK AO2 RAE32 SLP143 P0001 T01830161
KMCK 181820Z 1818/1918 04009KT 6SM -SHRA BR BKN020 OVC090 
     FM182300 04010KT P6SM VCTS BKN060CB 
     FM190200 04008KT P6SM BKN045 
     FM190800 VRB04KT P6SM OVC015 
     FM191000 VRB04KT 3SM BR OVC003 
     FM191500 31005KT P6SM BKN015
       
KAFK 181935Z AUTO 00000KT 1SM +TSRA OVC008 19/19 A2994 RMK AO2 LTG DSNT ALQS P0024 T01910187
KLBF 181853Z AUTO 06007KT 9SM OVC007 18/16 A3001 RMK AO2 SLP148 T01780156
KLBF 181721Z 1818/1918 05008KT P6SM VCSH OVC015 
     FM190000 10004KT P6SM BKN045 
     FM191000 16002KT P6SM BKN009 
     FM191500 20003KT P6SM BKN019
       
KOGA 181935Z 10SM SCT017 SCT022 OVC039 19/15 A3001 RMK AO2 LTG DSNT NE T01900148
KBTA 181935Z AUTO 03008KT 5SM -DZ OVC007 20/18 A2994 RMK AO2 LTG DSNT S T01950178
KOMA 181936Z 01008KT 3SM -RA BR SCT013 OVC060 21/19 A2993 RMK AO2 RAB17 P0001 T02060189
KOMA 181735Z 1818/1918 02010KT 6SM -SHRA BR SCT015 BKN030 
     FM181900 02008KT 5SM -RA BR VCTS SCT015 SCT025 OVC040CB 
     TEMPO 1819/1823 3SM TSRA BR FEW015 BKN025 OVC040CB 
     FM190400 02005KT 6SM -SHRA BR SCT007 OVC015 
     FM190800 02005KT 6SM BR SCT007 OVC025 
     FM191500 03005KT P6SM SCT025 BKN035
       
KMLE 181935Z AUTO 01004KT 3SM RA BKN010 BKN030 OVC055 20/19 A2994 RMK AO2 LTG DSNT S P0002 T02030187
KONL 181935Z AUTO 06005KT 10SM SCT070 22/11 A3000 RMK AO2 T02200112
KODX 181853Z AUTO 07007KT 4SM RA BR BKN080 OVC095 15/13 A3000 RMK AO2 SLP156 P0010 T01500133
KPMV 181935Z AUTO 35005KT 10SM VCTS BKN027 BKN075 OVC110 22/19 A2993 RMK AO2 LTG DSNT SE AND SW T02200187
KBFF 181853Z AUTO 15008KT 10SM FEW030 SCT065 21/14 A3002 RMK AO2 SLP131 T02060144
KBFF 181724Z 1818/1918 13010KT P6SM VCSH SCT007 BKN030 
     FM182100 14010KT P6SM VCTS SCT030 BKN050CB 
     FM190200 14008KT P6SM VCSH SCT020 BKN100
       
KSNY 181911Z AUTO 09009G15KT 10SM FEW020 BKN038 OVC049 19/13 A3004 RMK AO2 T01890128
KSNY 181724Z 1818/1918 05005KT P6SM OVC015 
     FM182100 11010KT P6SM VCSH BKN020 OVC040 
     FM190100 13008KT P6SM VCTS SCT020 BKN040CB 
     FM190700 20007KT P6SM OVC007
       
KTQE 181926Z AUTO 36012KT 10SM -RA BKN018 OVC080 20/17 A2995 RMK AO2 P0000 T02000167
KTIF 181935Z AUTO 10009KT 10SM BKN022 BKN030 OVC070 21/15 A3001 RMK AO2 LTG DSNT SW T02070152
KVTN 181852Z AUTO 13012G16KT 10SM SCT055 23/11 A3001 RMK AO2 SLP146 T02330106
KVTN 181721Z 1818/1918 11008KT P6SM OVC050 
     FM182300 13008KT P6SM BKN100 
     FM190400 16005KT P6SM SCT150 
     FM191000 19004KT P6SM BKN150
       
KAHQ 181935Z AUTO 03008KT 7SM -RA OVC007 20/19 A2995 RMK AO2 P0002 T01950190
KLCG 181935Z AUTO 07004KT 10SM SCT002 SCT100 19/14 A2998 RMK AO2 T01850139
KJYR 181935Z AUTO 03012KT 5SM -RA OVC005 18/18 A2996 RMK AO2 LTG DSNT S P0001